首页
METAR-TAF:

METAR-TAF

机场 :

德布勒森, 匈牙利

纬度: 47-29N, 经度: 021-36E, 海拔: 108米

当前天气观测

该预报发布于39分钟前的06:45 UTC
风速1节,风向多变
温度 21°C
湿度 83%
气压 1012 hPa
能見度: 8000

METAR: LHDC 150645Z AUTO VRB01KT 8000 NSC 21/18 Q1012 NOSIG

时间: 09:24 (07:24 UTC)

预报

该预报发布于2小时和9分钟前的05:15 UTC
预报有效从15日的 06点(UTC)到 15日的 15点(UTC)
风速3节,风向多变
能见度10公里或以上
1500米以下无云,无积雨云
成为
从 15日的 10点(UTC)到 15日的 13点(UTC)
风速8节,风向东南
几率 30% :
短暂存在
从 15日的 12点(UTC)到 15日的 15点(UTC)
风速20节,风向多变,有时为30节阵风
能見度: 5000
散云层高于6000英尺, 积雨云.
多云层高于8300英尺
雷暴, 雨, 阵雨

TAF: LHDC 150515Z 1506/1515 VRB03KT CAVOK BECMG 1510/1513 14008KT PROB30 TEMPO 1512/1515 VRB20G30KT 5000 TSRA SHRA SCT060CB BKN083

超过4000个机场的气象观测和天气预报(METAR&TAF报告)。

可查询的气象台以黄色和红色小点在地图上表示。

将鼠标移到小点上方,可查看气象台名称。

然后点击查看天气观测和预报。

如需切换地图:点击带黑十字的绿色按钮放大地图;点击带横线的绿色按钮缩小地图;或者点击绿色箭头查看邻近地区的地图。


METAR-TAF: